Time;durP1;ratioP1;P1;durP2;ratioP2;P2;SDS_P1;SDS_P2;PMS_P1;PMS_P2;Temp;Humidity;BMP_temperature;BMP_pressure;BME280_temperature;BME280_humidity;BME280_pressure;Samples;Min_cycle;Max_cycle;Signal;HPM_P1;HPM_P2
2023/05/25 00:01:58;;;;;;;11.40;3.40;;;9.80;99.90;;;;;;5068421;28;20538;-47
2023/05/25 00:04:25;;;;;;;5.93;2.57;;;9.80;99.90;;;;;;5068237;28;20153;-50
2023/05/25 00:06:52;;;;;;;8.35;2.92;;;9.70;99.90;;;;;;5068815;28;20037;-48
2023/05/25 00:09:17;;;;;;;5.57;3.20;;;9.70;99.90;;;;;;5070804;28;20032;-51
2023/05/25 00:11:44;;;;;;;5.40;2.90;;;9.70;99.90;;;;;;5070612;28;20055;-49
2023/05/25 00:14:09;;;;;;;5.43;2.80;;;9.60;99.90;;;;;;5070480;28;20048;-49
2023/05/25 00:16:39;;;;;;;9.75;2.90;;;9.60;99.90;;;;;;5071957;28;20120;-48
2023/05/25 00:19:05;;;;;;;4.60;2.40;;;9.60;99.90;;;;;;5070481;28;20041;-49
2023/05/25 00:21:33;;;;;;;5.43;2.42;;;9.60;99.90;;;;;;5071317;28;21311;-48
2023/05/25 00:23:59;;;;;;;7.68;2.90;;;9.50;99.90;;;;;;5070570;28;20049;-49
2023/05/25 00:26:24;;;;;;;7.53;2.92;;;9.50;99.90;;;;;;5051378;28;20040;-50
2023/05/25 00:28:50;;;;;;;9.20;3.37;;;9.40;99.90;;;;;;5069413;28;20334;-48
2023/05/25 00:31:16;;;;;;;5.50;2.70;;;9.40;99.90;;;;;;5068956;28;20290;-47
2023/05/25 00:33:41;;;;;;;6.60;2.83;;;9.40;99.90;;;;;;5071185;28;20278;-50
2023/05/25 00:36:10;;;;;;;12.55;3.10;;;9.40;99.90;;;;;;5071170;28;20481;-49
2023/05/25 00:38:36;;;;;;;15.57;5.13;;;9.30;99.90;;;;;;5070595;28;20290;-52
2023/05/25 00:41:01;;;;;;;8.27;3.17;;;9.30;99.90;;;;;;5070668;28;20039;-49
2023/05/25 00:43:27;;;;;;;12.73;3.13;;;9.20;99.90;;;;;;5071468;28;20497;-50
2023/05/25 00:45:53;;;;;;;10.80;4.53;;;9.20;99.90;;;;;;5070823;28;20318;-50
2023/05/25 00:48:18;;;;;;;7.85;3.08;;;9.20;99.90;;;;;;5052301;28;20439;-48
2023/05/25 00:50:44;;;;;;;10.15;3.85;;;9.20;99.90;;;;;;5071181;28;20120;-50
2023/05/25 00:53:12;;;;;;;11.27;3.30;;;9.30;99.90;;;;;;5070873;28;20451;-48
2023/05/25 00:55:49;;;;;;;12.20;2.97;;;9.20;99.90;;;;;;5070297;28;20493;-50
2023/05/25 00:58:19;;;;;;;7.57;2.88;;;9.20;99.90;;;;;;5069993;28;20075;-50
2023/05/25 01:00:48;;;;;;;5.50;2.92;;;9.20;99.90;;;;;;5071045;28;20037;-50
2023/05/25 01:03:16;;;;;;;10.38;3.25;;;9.20;99.90;;;;;;5070493;28;20033;-50
2023/05/25 01:05:46;;;;;;;7.45;2.80;;;9.10;99.90;;;;;;5070826;28;20040;-50
2023/05/25 01:08:15;;;;;;;6.18;3.03;;;9.10;99.90;;;;;;5068803;28;20048;-50
2023/05/25 01:10:41;;;;;;;6.40;2.88;;;9.10;99.90;;;;;;5071056;28;20037;-50
2023/05/25 01:13:08;;;;;;;10.25;3.08;;;9.10;99.90;;;;;;5070299;28;20036;-50
2023/05/25 01:15:36;;;;;;;5.50;2.72;;;9.10;99.90;;;;;;5071115;28;20032;-50
2023/05/25 01:18:02;;;;;;;4.15;2.80;;;9.00;99.90;;;;;;5068864;28;20029;-52
2023/05/25 01:20:30;;;;;;;5.03;2.08;;;8.90;99.90;;;;;;5070682;28;20098;-53
2023/05/25 01:23:01;;;;;;;3.08;1.73;;;8.90;99.90;;;;;;5068952;28;20040;-52
2023/05/25 01:25:35;;;;;;;2.67;1.45;;;8.90;99.90;;;;;;5070234;28;20553;-51
2023/05/25 01:28:27;;;;;;;3.53;1.27;;;8.90;99.90;;;;;;5068355;28;20063;-51
2023/05/25 01:30:56;;;;;;;2.35;1.17;;;8.80;99.90;;;;;;5070294;28;20037;-50
2023/05/25 01:33:22;;;;;;;3.35;1.80;;;8.80;99.90;;;;;;5068645;28;20051;-51
2023/05/25 01:35:48;;;;;;;;;;;8.80;99.90;;;;;;5070081;28;20028;-50
2023/05/25 01:38:14;;;;;;;2.13;1.45;;;8.80;99.90;;;;;;5068830;28;20347;-50
2023/05/25 01:40:40;;;;;;;2.05;1.20;;;8.70;99.90;;;;;;5069522;28;20040;-51
2023/05/25 01:43:05;;;;;;;3.97;1.98;;;8.70;99.90;;;;;;5069998;28;20094;-51
2023/05/25 01:45:31;;;;;;;3.20;1.93;;;8.70;99.90;;;;;;5069909;28;20111;-49
2023/05/25 01:48:29;;;;;;;2.65;1.58;;;8.60;99.90;;;;;;5068997;28;20102;-48
2023/05/25 01:51:06;;;;;;;2.40;1.25;;;8.60;99.90;;;;;;5070010;28;20120;-49
2023/05/25 01:53:35;;;;;;;;;;;8.60;99.90;;;;;;5052402;28;20303;-50
2023/05/25 01:56:07;;;;;;;3.92;1.55;;;8.60;99.90;;;;;;5069319;28;20092;-49
2023/05/25 01:58:44;;;;;;;1.73;1.30;;;8.60;99.90;;;;;;5068926;28;20043;-48
2023/05/25 02:01:12;;;;;;;2.55;2.03;;;8.60;99.90;;;;;;5068732;28;20111;-50
2023/05/25 02:03:40;;;;;;;2.75;2.00;;;8.60;99.90;;;;;;5069365;28;20045;-48
2023/05/25 02:06:07;;;;;;;3.35;2.22;;;8.60;99.90;;;;;;5069765;28;20044;-50
2023/05/25 02:08:33;;;;;;;5.55;2.25;;;8.50;99.90;;;;;;5068013;28;20044;-49
2023/05/25 02:10:58;;;;;;;5.30;2.08;;;8.60;99.90;;;;;;5069668;28;20048;-49
2023/05/25 02:13:24;;;;;;;4.77;2.00;;;8.50;99.90;;;;;;5068828;28;20036;-50
2023/05/25 02:15:50;;;;;;;1.98;1.60;;;8.50;99.90;;;;;;5069842;28;20131;-50
2023/05/25 02:18:16;;;;;;;4.47;2.53;;;8.50;99.90;;;;;;5068639;28;20060;-49
2023/05/25 02:20:42;;;;;;;;;;;8.50;99.90;;;;;;5070182;28;20443;-49
2023/05/25 02:23:08;;;;;;;2.92;2.22;;;8.40;99.90;;;;;;5049940;28;20381;-48
2023/05/25 02:25:34;;;;;;;5.88;2.08;;;8.40;99.90;;;;;;5068952;28;20083;-50
2023/05/25 02:27:59;;;;;;;4.45;2.28;;;8.30;99.90;;;;;;5068632;28;20117;-48
2023/05/25 02:30:25;;;;;;;1.90;1.55;;;8.30;99.90;;;;;;5068718;28;20090;-49
2023/05/25 02:32:52;;;;;;;5.43;1.90;;;8.30;99.90;;;;;;5069228;28;20127;-47
2023/05/25 02:35:18;;;;;;;6.80;2.72;;;8.40;99.90;;;;;;5068413;28;20177;-47
2023/05/25 02:37:44;;;;;;;3.20;1.70;;;8.40;99.90;;;;;;5067706;28;20856;-49
2023/05/25 02:40:10;;;;;;;5.07;2.72;;;8.30;99.90;;;;;;5068384;28;20048;-50
2023/05/25 02:42:36;;;;;;;5.25;2.22;;;8.30;99.90;;;;;;5069272;28;20081;-49
2023/05/25 02:45:03;;;;;;;5.15;2.53;;;8.30;99.90;;;;;;5065966;28;20127;-49
2023/05/25 02:47:28;;;;;;;4.03;1.73;;;8.30;99.90;;;;;;5066999;28;20037;-49
2023/05/25 02:49:54;;;;;;;2.43;1.33;;;8.30;99.90;;;;;;5067951;28;20456;-51
2023/05/25 02:52:20;;;;;;;5.63;2.00;;;8.30;99.90;;;;;;5068580;28;20040;-49
2023/05/25 02:54:45;;;;;;;2.50;1.48;;;8.30;99.90;;;;;;5064025;28;20044;-47
2023/05/25 02:57:11;;;;;;;3.40;1.47;;;8.30;99.90;;;;;;5066974;28;20032;-47
2023/05/25 02:59:37;;;;;;;3.10;2.30;;;8.20;99.90;;;;;;5067176;28;20067;-49
2023/05/25 03:02:02;;;;;;;10.25;2.33;;;8.20;99.90;;;;;;5068670;28;20040;-50
2023/05/25 03:04:30;;;;;;;6.27;2.20;;;8.20;99.90;;;;;;5068810;28;20036;-50
2023/05/25 03:06:55;;;;;;;5.68;2.45;;;8.20;99.90;;;;;;5051246;28;20467;-50
2023/05/25 03:09:21;;;;;;;10.50;3.20;;;8.20;99.90;;;;;;5067287;28;20036;-47
2023/05/25 03:11:46;;;;;;;9.38;3.20;;;8.10;99.90;;;;;;5069316;28;20040;-48
2023/05/25 03:14:12;;;;;;;8.63;2.70;;;8.10;99.90;;;;;;5067892;28;20082;-50
2023/05/25 03:16:37;;;;;;;4.15;2.40;;;8.10;99.90;;;;;;5069021;28;20111;-49
2023/05/25 03:19:04;;;;;;;4.60;3.30;;;8.10;99.90;;;;;;5067276;28;20032;-47
2023/05/25 03:21:31;;;;;;;6.07;3.10;;;8.10;99.90;;;;;;5066667;28;20086;-49
2023/05/25 03:23:56;;;;;;;6.95;3.03;;;8.10;99.90;;;;;;5067729;28;20051;-50
2023/05/25 03:26:24;;;;;;;5.55;3.22;;;8.10;99.90;;;;;;5068575;28;20036;-49
2023/05/25 03:28:50;;;;;;;7.93;2.55;;;8.10;99.90;;;;;;5067525;28;20362;-47
2023/05/25 03:31:16;;;;;;;7.13;2.38;;;8.10;99.90;;;;;;5068711;28;20028;-49
2023/05/25 03:33:42;;;;;;;5.78;2.30;;;8.10;99.90;;;;;;5068096;28;20029;-49
2023/05/25 03:36:08;;;;;;;5.20;2.20;;;8.10;99.90;;;;;;5050349;28;20083;-50
2023/05/25 03:38:35;;;;;;;4.47;2.58;;;8.10;99.90;;;;;;5066563;28;20082;-48
2023/05/25 03:41:01;;;;;;;4.43;2.83;;;8.10;99.90;;;;;;5068487;28;20025;-50
2023/05/25 03:43:26;;;;;;;7.20;4.20;;;8.10;99.90;;;;;;5071723;28;20509;-51
2023/05/25 03:45:52;;;;;;;4.17;2.77;;;8.10;99.90;;;;;;5072362;28;20282;-49
2023/05/25 03:48:18;;;;;;;5.97;3.47;;;8.10;99.90;;;;;;5071610;28;20041;-49
2023/05/25 03:50:43;;;;;;;6.30;3.10;;;8.10;99.90;;;;;;5072285;28;20036;-50
2023/05/25 03:53:09;;;;;;;4.53;3.57;;;8.10;99.90;;;;;;5071336;28;20040;-49
2023/05/25 03:55:34;;;;;;;6.47;3.80;;;8.10;99.90;;;;;;5072524;28;20440;-50
2023/05/25 03:58:00;;;;;;;5.50;2.80;;;8.20;99.90;;;;;;5071346;28;20287;-50
2023/05/25 04:00:25;;;;;;;6.37;2.67;;;8.20;99.90;;;;;;5072156;28;20532;-50
2023/05/25 04:02:51;;;;;;;5.43;2.53;;;8.20;99.90;;;;;;5072035;28;20196;-51
2023/05/25 04:05:17;;;;;;;2.33;2.13;;;8.20;99.90;;;;;;5071579;28;20044;-49
2023/05/25 04:07:43;;;;;;;2.57;1.70;;;8.20;99.90;;;;;;5070270;28;20290;-53
2023/05/25 04:10:09;;;;;;;22.20;1.77;;;8.20;99.90;;;;;;5072250;28;20037;-50
2023/05/25 04:12:35;;;;;;;4.43;1.10;;;8.20;99.90;;;;;;5071528;28;20039;-49
2023/05/25 04:15:02;;;;;;;2.45;1.13;;;8.10;99.90;;;;;;5071345;28;20417;-50
2023/05/25 04:17:28;;;;;;;1.75;0.50;;;8.10;99.90;;;;;;5071612;28;20135;-48
2023/05/25 04:19:54;;;;;;;3.57;0.60;;;8.00;99.90;;;;;;5071330;28;20115;-48
2023/05/25 04:22:20;;;;;;;2.67;0.65;;;7.90;99.90;;;;;;5071250;28;20036;-49
2023/05/25 04:24:45;;;;;;;2.40;1.23;;;8.00;99.90;;;;;;5071477;28;20025;-47
2023/05/25 04:27:13;;;;;;;7.07;1.10;;;8.00;99.90;;;;;;5071492;28;20117;-47
2023/05/25 04:29:39;;;;;;;2.85;1.33;;;8.00;99.90;;;;;;5070445;28;20036;-49
2023/05/25 04:32:08;;;;;;;1.83;1.30;;;8.00;99.90;;;;;;5071531;28;20401;-49
2023/05/25 04:34:35;;;;;;;5.55;1.85;;;8.00;99.90;;;;;;5071025;28;20174;-48
2023/05/25 04:37:04;;;;;;;3.60;1.88;;;8.10;99.90;;;;;;5071139;28;20064;-48
2023/05/25 04:39:31;;;;;;;8.35;2.65;;;8.20;99.90;;;;;;5069945;28;20508;-50
2023/05/25 04:41:57;;;;;;;8.30;4.70;;;8.30;99.90;;;;;;5071524;28;20044;-46
2023/05/25 04:44:23;;;;;;;9.60;4.43;;;8.40;99.90;;;;;;5071073;28;20036;-48
2023/05/25 04:46:49;;;;;;;9.18;3.03;;;8.50;99.90;;;;;;5071330;28;20489;-48
2023/05/25 04:49:17;;;;;;;5.50;3.47;;;8.60;99.90;;;;;;5052196;28;20037;-49
2023/05/25 04:51:43;;;;;;;5.13;4.63;;;8.70;99.90;;;;;;5070566;28;20513;-48
2023/05/25 04:54:08;;;;;;;11.90;5.73;;;8.80;99.90;;;;;;5070344;28;20044;-49
2023/05/25 04:56:34;;;;;;;7.20;5.40;;;8.80;99.90;;;;;;5071413;28;20388;-48
2023/05/25 04:59:00;;;;;;;6.80;5.73;;;8.90;99.90;;;;;;5053401;28;20109;-49
2023/05/25 05:01:26;;;;;;;10.33;5.73;;;9.00;99.90;;;;;;5072052;28;20039;-49
2023/05/25 05:03:51;;;;;;;8.48;5.57;;;9.10;99.90;;;;;;5068812;28;21179;-48
2023/05/25 05:06:17;;;;;;;13.53;6.93;;;9.20;99.90;;;;;;5070086;28;20036;-49
2023/05/25 05:08:42;;;;;;;14.43;6.75;;;9.30;99.90;;;;;;5068678;28;20521;-49
2023/05/25 05:11:09;;;;;;;8.97;5.50;;;9.40;99.90;;;;;;5070704;28;20047;-49
2023/05/25 05:13:35;;;;;;;17.35;6.75;;;9.50;99.90;;;;;;5067818;28;20042;-48
2023/05/25 05:16:00;;;;;;;13.43;6.63;;;9.60;99.90;;;;;;5067132;28;20174;-48
2023/05/25 05:18:27;;;;;;;13.02;7.07;;;9.70;99.90;;;;;;5066386;28;20082;-49
2023/05/25 05:20:53;;;;;;;16.60;8.50;;;9.80;99.90;;;;;;5070735;28;20048;-48
2023/05/25 05:23:19;;;;;;;15.60;7.93;;;9.90;99.90;;;;;;5070041;28;20067;-47
2023/05/25 05:25:45;;;;;;;13.80;7.30;;;10.00;99.90;;;;;;5070281;28;20493;-47
2023/05/25 05:28:10;;;;;;;9.10;7.43;;;10.10;99.90;;;;;;5069129;28;20374;-49
2023/05/25 05:30:36;;;;;;;16.88;9.00;;;10.20;99.90;;;;;;5067676;28;20402;-47
2023/05/25 05:33:02;;;;;;;14.18;7.68;;;10.30;99.90;;;;;;5070305;28;20028;-49
2023/05/25 05:35:27;;;;;;;16.55;8.10;;;10.50;99.90;;;;;;5069865;28;20066;-49
2023/05/25 05:37:53;;;;;;;17.77;7.77;;;10.60;99.90;;;;;;5051701;28;20032;-49
2023/05/25 05:40:18;;;;;;;17.63;8.47;;;10.80;99.90;;;;;;5070148;28;20909;-49
2023/05/25 05:42:44;;;;;;;14.90;8.45;;;10.90;99.90;;;;;;5070094;28;20033;-49
2023/05/25 05:45:10;;;;;;;18.38;8.23;;;11.00;99.90;;;;;;5069669;28;20421;-47
2023/05/25 05:47:35;;;;;;;18.48;7.55;;;11.10;99.90;;;;;;5069140;28;20111;-46
2023/05/25 05:50:01;;;;;;;13.07;7.45;;;11.30;99.90;;;;;;5069697;28;20040;-48
2023/05/25 05:52:27;;;;;;;17.08;8.30;;;11.40;99.90;;;;;;5069987;28;20033;-50
2023/05/25 05:54:53;;;;;;;14.13;8.05;;;11.50;99.90;;;;;;5069267;28;20113;-47
2023/05/25 05:57:18;;;;;;;18.60;7.30;;;11.70;99.90;;;;;;5069966;28;20031;-49
2023/05/25 05:59:44;;;;;;;19.17;7.87;;;11.80;99.90;;;;;;5069029;28;20714;-47
2023/05/25 06:02:10;;;;;;;18.40;7.10;;;11.90;99.90;;;;;;5051761;28;20298;-50
2023/05/25 06:04:37;;;;;;;13.85;6.55;;;12.10;99.90;;;;;;5068156;28;20051;-48
2023/05/25 06:07:02;;;;;;;13.30;7.35;;;12.20;99.90;;;;;;5069243;28;20552;-48
2023/05/25 06:09:28;;;;;;;25.27;8.05;;;12.30;99.90;;;;;;5048439;28;20037;-48
2023/05/25 06:11:53;;;;;;;20.92;8.23;;;12.50;99.90;;;;;;5068365;28;20041;-48
2023/05/25 06:14:19;;;;;;;21.00;5.88;;;12.60;99.90;;;;;;5066196;28;20044;-51
2023/05/25 06:16:45;;;;;;;25.87;6.30;;;12.70;99.90;;;;;;5065091;28;20110;-50
2023/05/25 06:19:11;;;;;;;8.57;4.55;;;12.80;99.90;;;;;;5067895;28;20291;-50
2023/05/25 06:21:36;;;;;;;20.27;6.57;;;12.90;99.90;;;;;;5069126;28;20036;-49
2023/05/25 06:24:02;;;;;;;17.00;5.80;;;13.00;99.90;;;;;;5068952;28;20040;-49
2023/05/25 06:26:28;;;;;;;15.60;5.95;;;13.10;99.90;;;;;;5067734;28;20037;-50
2023/05/25 06:28:56;;;;;;;18.00;7.37;;;13.20;99.90;;;;;;5068156;28;20079;-51
2023/05/25 06:31:21;;;;;;;16.73;5.65;;;13.30;99.90;;;;;;5069512;28;20378;-51
2023/05/25 06:33:47;;;;;;;14.25;5.68;;;13.40;99.90;;;;;;5065261;28;20124;-51
2023/05/25 06:36:14;;;;;;;15.30;5.65;;;13.50;99.90;;;;;;5069180;28;20036;-49
2023/05/25 06:38:40;;;;;;;15.57;6.30;;;13.60;99.90;;;;;;5068496;28;20620;-50
2023/05/25 06:41:06;;;;;;;17.92;6.95;;;13.70;99.90;;;;;;5068899;28;20443;-50
2023/05/25 06:43:32;;;;;;;15.23;5.15;;;13.80;99.90;;;;;;5068512;28;20064;-47
2023/05/25 06:45:58;;;;;;;15.80;6.00;;;13.90;99.90;;;;;;5068608;28;20117;-49
2023/05/25 06:48:23;;;;;;;12.25;5.70;;;14.00;99.90;;;;;;5068118;28;20465;-50
2023/05/25 06:50:49;;;;;;;21.55;5.50;;;14.00;99.90;;;;;;5068984;28;20032;-49
2023/05/25 06:53:15;;;;;;;10.35;3.33;;;14.00;99.90;;;;;;5068595;28;20032;-49
2023/05/25 06:55:41;;;;;;;10.98;3.33;;;14.00;99.90;;;;;;5067741;28;20040;-48
2023/05/25 06:58:07;;;;;;;15.00;3.38;;;14.10;99.90;;;;;;5051717;28;20036;-50
2023/05/25 07:00:32;;;;;;;10.45;2.80;;;14.10;99.90;;;;;;5068606;28;20024;-49
2023/05/25 07:02:58;;;;;;;11.10;3.30;;;14.20;99.90;;;;;;5068762;28;20045;-52
2023/05/25 07:05:23;;;;;;;13.60;2.85;;;14.30;99.90;;;;;;5068194;28;20397;-48
2023/05/25 07:07:49;;;;;;;16.27;3.72;;;14.40;99.90;;;;;;5067444;28;20074;-50
2023/05/25 07:10:15;;;;;;;10.35;3.20;;;14.50;99.90;;;;;;5068185;28;20545;-48
2023/05/25 07:12:40;;;;;;;9.65;2.83;;;14.70;99.90;;;;;;5068332;28;20036;-51
2023/05/25 07:15:07;;;;;;;15.07;3.20;;;14.70;99.90;;;;;;5067992;28;20047;-48
2023/05/25 07:17:32;;;;;;;12.75;3.13;;;14.80;99.90;;;;;;5067338;28;20036;-49
2023/05/25 07:19:58;;;;;;;12.07;3.13;;;14.90;99.90;;;;;;5068271;28;20093;-49
2023/05/25 07:22:24;;;;;;;7.82;3.13;;;14.90;99.90;;;;;;5068309;28;20032;-51
2023/05/25 07:24:50;;;;;;;11.13;3.05;;;15.00;99.90;;;;;;5050022;28;20056;-48
2023/05/25 07:27:15;;;;;;;14.43;2.85;;;15.20;99.90;;;;;;5068429;28;20037;-50
2023/05/25 07:29:41;;;;;;;9.23;3.17;;;15.20;99.90;;;;;;5049385;28;20044;-51
2023/05/25 07:32:07;;;;;;;10.55;2.63;;;15.30;99.90;;;;;;5067999;28;20040;-50
2023/05/25 07:34:34;;;;;;;16.63;4.13;;;15.40;99.90;;;;;;5067858;28;20083;-50
2023/05/25 07:36:59;;;;;;;11.98;3.35;;;15.40;99.90;;;;;;5068786;28;20167;-49
2023/05/25 07:39:25;;;;;;;15.27;3.92;;;15.50;99.90;;;;;;5067165;28;20032;-50
2023/05/25 07:41:51;;;;;;;13.73;3.40;;;15.60;99.90;;;;;;5068079;28;20040;-48
2023/05/25 07:44:16;;;;;;;22.73;3.03;;;15.60;99.90;;;;;;5065319;28;20054;-50
2023/05/25 07:46:42;;;;;;;10.27;2.80;;;15.50;99.90;;;;;;5064557;28;20467;-50
2023/05/25 07:49:12;;;;;;;13.75;3.65;;;15.60;99.90;;;;;;5066819;28;20038;-48
2023/05/25 07:51:38;;;;;;;13.00;2.85;;;15.70;99.90;;;;;;5067923;28;21557;-49
2023/05/25 07:54:06;;;;;;;8.32;2.55;;;15.90;99.90;;;;;;5065231;28;20062;-51
2023/05/25 07:56:32;;;;;;;12.70;3.28;;;16.00;99.90;;;;;;5067226;28;20032;-50
2023/05/25 07:58:58;;;;;;;9.30;2.15;;;16.20;99.90;;;;;;5066889;28;20143;-49
2023/05/25 08:01:24;;;;;;;9.38;3.08;;;16.20;99.90;;;;;;5067688;28;20129;-48
2023/05/25 08:03:49;;;;;;;9.00;2.08;;;16.20;99.90;;;;;;5062709;28;20667;-49
2023/05/25 08:06:15;;;;;;;12.38;2.17;;;16.20;99.90;;;;;;5067835;28;20032;-49
2023/05/25 08:08:43;;;;;;;16.25;3.22;;;16.20;99.90;;;;;;5066878;28;20513;-51
2023/05/25 08:11:10;;;;;;;68.82;6.88;;;16.20;99.90;;;;;;5067695;28;20051;-52
2023/05/25 08:13:36;;;;;;;247.35;15.52;;;16.20;99.90;;;;;;5064092;28;20120;-51
2023/05/25 08:16:01;;;;;;;15.60;3.15;;;16.20;99.90;;;;;;5065815;28;20116;-50
2023/05/25 08:18:27;;;;;;;14.25;2.30;;;16.20;99.90;;;;;;5064438;28;20037;-49
2023/05/25 08:20:53;;;;;;;9.77;2.50;;;16.20;99.90;;;;;;5067043;28;20477;-52
2023/05/25 08:23:18;;;;;;;9.57;2.25;;;16.20;99.90;;;;;;5049623;28;20037;-50
2023/05/25 08:25:44;;;;;;;19.27;2.65;;;16.20;99.90;;;;;;5067920;28;20094;-51
2023/05/25 08:28:10;;;;;;;10.02;2.00;;;16.30;99.90;;;;;;5067558;28;20428;-49
2023/05/25 08:30:35;;;;;;;10.43;2.42;;;16.30;99.90;;;;;;5071514;28;20086;-51
2023/05/25 08:33:01;;;;;;;16.77;2.95;;;16.40;99.90;;;;;;5053498;28;20115;-51
2023/05/25 08:35:26;;;;;;;9.00;2.00;;;16.40;99.90;;;;;;5070936;28;20037;-50
2023/05/25 08:37:52;;;;;;;12.13;2.38;;;16.40;99.90;;;;;;5070343;28;20028;-52
2023/05/25 08:40:20;;;;;;;16.23;2.22;;;16.40;99.90;;;;;;5070956;28;20039;-51
2023/05/25 08:42:46;;;;;;;7.15;2.55;;;16.50;99.90;;;;;;5070623;28;20035;-50
2023/05/25 08:45:11;;;;;;;10.32;2.17;;;16.40;99.90;;;;;;5071245;28;20053;-52
2023/05/25 08:47:42;;;;;;;12.80;2.47;;;16.40;99.90;;;;;;5069925;28;20033;-53
2023/05/25 08:50:10;;;;;;;13.40;2.67;;;16.40;99.90;;;;;;5071286;28;20037;-53
2023/05/25 08:52:39;;;;;;;10.32;2.13;;;16.50;99.90;;;;;;5070822;28;20111;-51
2023/05/25 08:55:07;;;;;;;10.52;2.13;;;16.40;99.90;;;;;;5070230;28;20131;-53
2023/05/25 08:58:02;;;;;;;11.13;2.25;;;16.50;99.90;;;;;;5069833;28;20075;-55
2023/05/25 09:00:33;;;;;;;10.13;2.28;;;16.50;99.90;;;;;;5070975;28;20043;-50
2023/05/25 09:03:10;;;;;;;13.75;2.88;;;16.50;99.90;;;;;;5070212;28;20033;-52
2023/05/25 09:05:36;;;;;;;9.40;3.25;;;16.50;99.90;;;;;;5068375;28;20032;-54
2023/05/25 09:08:05;;;;;;;27.67;4.43;;;16.40;99.90;;;;;;5069552;28;20037;-50
2023/05/25 09:10:34;;;;;;;16.08;3.20;;;16.40;99.90;;;;;;5070936;28;20074;-50
2023/05/25 09:13:00;;;;;;;12.85;2.75;;;16.30;99.90;;;;;;5070369;28;20041;-54
2023/05/25 09:15:25;;;;;;;;;;;16.30;99.90;;;;;;5070877;28;20401;-54
2023/05/25 09:17:51;;;;;;;19.90;3.45;;;16.30;99.90;;;;;;5069784;28;19938;-53
2023/05/25 09:20:18;;;;;;;14.98;3.15;;;16.30;99.90;;;;;;5070006;28;20033;-56
2023/05/25 09:22:44;;;;;;;17.55;3.55;;;16.30;99.90;;;;;;5070903;28;20078;-56
2023/05/25 09:25:12;;;;;;;23.17;4.97;;;16.30;99.90;;;;;;5069990;28;20052;-55
2023/05/25 09:27:37;;;;;;;26.45;3.20;;;16.40;99.90;;;;;;5069693;28;20037;-51
2023/05/25 09:30:04;;;;;;;18.75;3.10;;;16.40;99.90;;;;;;5070269;28;20118;-53
2023/05/25 09:32:30;;;;;;;13.85;3.47;;;16.40;99.90;;;;;;5069925;28;20529;-56
2023/05/25 09:35:06;;;;;;;15.75;3.15;;;16.50;99.90;;;;;;5069220;28;20123;-55
2023/05/25 09:37:32;;;;;;;22.98;3.65;;;16.60;99.90;;;;;;5069077;28;20044;-58
2023/05/25 09:39:58;;;;;;;15.15;3.33;;;16.60;99.90;;;;;;5068945;28;20033;-56
2023/05/25 09:42:23;;;;;;;13.65;2.90;;;16.70;99.90;;;;;;5067815;28;20067;-56
2023/05/25 09:44:49;;;;;;;12.57;2.90;;;16.70;99.90;;;;;;5069695;28;20089;-55
2023/05/25 09:47:16;;;;;;;19.02;3.47;;;16.70;99.90;;;;;;5069832;28;20327;-54
2023/05/25 09:49:43;;;;;;;21.35;3.30;;;16.80;99.90;;;;;;5068984;28;20055;-52
2023/05/25 09:52:11;;;;;;;20.88;3.88;;;16.80;99.90;;;;;;5070099;28;20481;-53
2023/05/25 09:54:37;;;;;;;13.82;3.45;;;16.80;99.90;;;;;;5067207;28;20771;-53
2023/05/25 09:57:04;;;;;;;17.70;4.05;;;16.80;99.80;;;;;;5065090;28;20398;-55
2023/05/25 09:59:30;;;;;;;16.15;4.07;;;16.80;99.70;;;;;;5068568;28;20409;-56
2023/05/25 10:01:56;;;;;;;;;;;16.80;99.50;;;;;;5069356;28;20041;-55
2023/05/25 10:04:22;;;;;;;14.48;3.50;;;16.80;99.50;;;;;;5069128;28;19969;-53
2023/05/25 10:06:51;;;;;;;14.13;3.15;;;16.80;99.20;;;;;;5069841;28;20043;-55
2023/05/25 10:09:20;;;;;;;15.57;3.55;;;16.80;98.80;;;;;;5065862;28;20025;-55
2023/05/25 10:11:49;;;;;;;16.10;3.30;;;17.10;99.60;;;;;;5068621;28;20032;-54
2023/05/25 10:14:23;;;;;;;16.80;3.88;;;17.30;99.50;;;;;;5063349;28;20499;-56
2023/05/25 10:16:51;;;;;;;17.77;3.85;;;17.60;98.60;;;;;;5052142;28;20048;-55
2023/05/25 10:19:31;;;;;;;20.60;4.35;;;17.60;98.40;;;;;;5067963;28;20028;-54
2023/05/25 10:22:27;;;;;;;14.43;3.35;;;17.70;98.00;;;;;;5069824;28;20064;-53
2023/05/25 10:24:55;;;;;;;18.83;3.40;;;17.70;97.50;;;;;;5066870;28;20544;-53
2023/05/25 10:27:23;;;;;;;19.17;3.58;;;17.80;98.20;;;;;;5069073;28;20599;-55
2023/05/25 10:29:51;;;;;;;15.77;3.22;;;18.00;97.80;;;;;;5068620;28;20094;-55
2023/05/25 10:32:17;;;;;;;18.90;4.07;;;18.20;97.60;;;;;;5069356;28;20032;-54
2023/05/25 10:34:44;;;;;;;16.45;3.65;;;18.30;97.20;;;;;;5068701;28;20063;-56
2023/05/25 10:37:11;;;;;;;16.00;3.88;;;18.30;97.00;;;;;;5068774;28;20082;-56
2023/05/25 10:39:41;;;;;;;22.00;4.72;;;18.40;97.20;;;;;;5065528;28;20489;-55
2023/05/25 10:42:07;;;;;;;22.77;4.45;;;18.40;96.60;;;;;;5068935;28;20404;-54
2023/05/25 10:44:33;;;;;;;20.83;4.40;;;18.30;96.40;;;;;;5068552;28;20505;-55
2023/05/25 10:46:59;;;;;;;17.80;4.75;;;18.20;96.30;;;;;;5066459;28;20090;-55
2023/05/25 10:49:31;;;;;;;17.83;4.35;;;18.20;96.30;;;;;;5050297;28;20049;-53
2023/05/25 10:51:58;;;;;;;21.83;4.75;;;18.10;95.90;;;;;;5067821;28;20444;-52
2023/05/25 10:54:32;;;;;;;14.57;3.70;;;18.10;96.20;;;;;;5068421;28;20028;-55
2023/05/25 10:57:08;;;;;;;21.48;3.60;;;18.30;95.80;;;;;;5068762;28;20044;-55
2023/05/25 10:59:33;;;;;;;25.73;5.32;;;18.50;96.50;;;;;;5067925;28;20058;-57
2023/05/25 11:02:05;;;;;;;13.38;4.15;;;18.60;95.90;;;;;;5050629;28;20533;-52
2023/05/25 11:04:35;;;;;;;20.88;4.57;;;18.60;95.40;;;;;;5067643;28;20067;-54
2023/05/25 11:07:01;;;;;;;28.52;5.18;;;18.50;95.10;;;;;;5068602;28;20032;-52
2023/05/25 11:09:30;;;;;;;20.27;4.60;;;18.50;95.30;;;;;;5067410;28;20505;-52
2023/05/25 11:11:57;;;;;;;17.90;4.22;;;18.60;95.40;;;;;;5068402;28;20074;-58
2023/05/25 11:14:31;;;;;;;17.25;4.45;;;18.70;95.40;;;;;;5067759;28;20044;-55
2023/05/25 11:17:14;;;;;;;23.63;5.25;;;18.70;95.00;;;;;;5067974;28;20032;-58
2023/05/25 11:20:00;;;;;;;22.00;4.47;;;18.80;95.20;;;;;;5067276;28;20040;-58
2023/05/25 11:22:31;;;;;;;22.30;4.47;;;18.90;94.70;;;;;;5068259;28;20520;-53
2023/05/25 11:24:58;;;;;;;26.52;5.18;;;19.00;94.60;;;;;;5067839;28;20064;-53
2023/05/25 11:27:27;;;;;;;20.95;4.90;;;19.00;94.50;;;;;;5067562;28;20129;-56
2023/05/25 11:29:55;;;;;;;20.08;5.07;;;19.00;94.00;;;;;;5067895;28;20455;-58
2023/05/25 11:32:21;;;;;;;16.40;4.20;;;19.00;93.90;;;;;;5066771;28;20102;-58
2023/05/25 11:34:47;;;;;;;;;;;19.00;94.20;;;;;;5068034;28;20102;-59
2023/05/25 11:37:16;;;;;;;24.35;4.47;;;19.10;93.30;;;;;;5068434;28;19951;-59
2023/05/25 11:39:45;;;;;;;21.55;4.97;;;19.20;93.80;;;;;;5065623;28;20039;-56
2023/05/25 11:42:13;;;;;;;17.80;4.03;;;19.30;93.90;;;;;;5066964;28;20059;-56
2023/05/25 11:44:40;;;;;;;18.00;4.90;;;19.40;93.50;;;;;;5067486;28;20436;-57
2023/05/25 11:47:12;;;;;;;17.00;4.30;;;19.50;93.50;;;;;;5064951;28;20040;-53
2023/05/25 11:49:44;;;;;;;15.02;3.95;;;19.70;93.00;;;;;;5066401;28;20036;-54
2023/05/25 11:52:13;;;;;;;22.92;4.32;;;19.60;92.30;;;;;;5065521;28;20108;-56
2023/05/25 11:54:40;;;;;;;21.80;4.07;;;19.50;92.30;;;;;;5066862;28;20040;-56
2023/05/25 11:57:13;;;;;;;;;;;19.50;92.50;;;;;;5065529;28;20129;-56
2023/05/25 11:59:39;;;;;;;20.00;3.95;;;19.50;91.50;;;;;;5066901;28;20007;-52
2023/05/25 12:02:04;;;;;;;10.77;3.45;;;19.50;92.20;;;;;;5067967;28;20094;-56
2023/05/25 12:04:32;;;;;;;12.60;3.35;;;19.60;92.40;;;;;;5071381;28;20033;-56
2023/05/25 12:07:02;;;;;;;17.40;3.78;;;19.50;91.50;;;;;;5071224;28;20063;-55
2023/05/25 12:09:28;;;;;;;19.75;4.30;;;19.50;91.30;;;;;;5067651;28;20044;-54
2023/05/25 12:11:53;;;;;;;14.73;4.13;;;19.50;92.00;;;;;;5069387;28;20094;-55
2023/05/25 12:14:19;;;;;;;;;;;19.50;91.60;;;;;;5052462;28;20025;-51
2023/05/25 12:16:45;;;;;;;15.80;2.88;;;19.60;91.60;;;;;;5070987;28;19928;-55
2023/05/25 12:19:11;;;;;;;;;;;19.70;91.90;;;;;;5070207;28;20115;-54
2023/05/25 12:21:39;;;;;;;13.60;3.50;;;19.70;91.10;;;;;;5071285;28;20345;-57
2023/05/25 12:24:05;;;;;;;13.73;3.65;;;19.70;91.40;;;;;;5051841;28;20067;-52
2023/05/25 12:26:31;;;;;;;388.15;30.17;;;19.70;91.40;;;;;;5071172;28;20086;-51
2023/05/25 12:29:05;;;;;;;20.35;4.40;;;19.70;91.10;;;;;;5069045;28;20045;-51
2023/05/25 12:31:35;;;;;;;16.38;3.88;;;19.70;91.00;;;;;;5071505;28;20044;-53
2023/05/25 12:34:13;;;;;;;16.88;4.57;;;19.70;91.60;;;;;;5070579;28;20466;-54
2023/05/25 12:36:50;;;;;;;16.67;3.63;;;19.80;90.80;;;;;;5067671;28;20119;-53
2023/05/25 12:39:28;;;;;;;14.18;4.68;;;19.90;90.70;;;;;;5070561;28;20040;-53
2023/05/25 12:41:55;;;;;;;18.38;4.30;;;19.90;90.70;;;;;;5069115;28;20120;-57
2023/05/25 12:44:20;;;;;;;17.50;4.45;;;20.00;90.50;;;;;;5065008;28;20123;-56
2023/05/25 12:46:53;;;;;;;14.45;3.75;;;20.00;90.50;;;;;;5068002;28;20127;-54
2023/05/25 12:49:26;;;;;;;19.98;5.05;;;20.00;90.50;;;;;;5066904;28;20288;-56